createdAt,value
2019-03-27T00:01:34.982Z,11.10
2019-03-27T00:04:02.405Z,13.00
2019-03-27T00:06:29.791Z,11.93
2019-03-27T00:08:57.198Z,10.20
2019-03-27T00:11:24.590Z,10.90
2019-03-27T00:13:51.969Z,10.57
2019-03-27T00:16:19.385Z,11.97
2019-03-27T00:18:46.779Z,11.50
2019-03-27T00:21:14.186Z,12.87
2019-03-27T00:23:41.574Z,12.80
2019-03-27T00:26:08.989Z,11.77
2019-03-27T00:28:36.373Z,11.83
2019-03-27T00:31:03.790Z,11.70
2019-03-27T00:33:31.178Z,12.10
2019-03-27T00:35:58.592Z,11.33
2019-03-27T00:38:25.976Z,13.30
2019-03-27T00:40:53.398Z,12.37
2019-03-27T00:43:20.794Z,12.97
2019-03-27T00:45:48.214Z,12.73
2019-03-27T00:48:15.610Z,12.50
2019-03-27T00:50:43.024Z,11.93
2019-03-27T00:53:10.417Z,11.63
2019-03-27T00:55:37.837Z,10.73
2019-03-27T00:58:05.216Z,11.97
2019-03-27T01:00:34.184Z,11.70
2019-03-27T01:03:01.576Z,11.37
2019-03-27T01:05:28.999Z,11.57
2019-03-27T01:07:56.378Z,10.50
2019-03-27T01:10:23.861Z,13.10
2019-03-27T01:12:51.246Z,11.00
2019-03-27T01:15:18.660Z,10.73
2019-03-27T01:17:46.044Z,10.23
2019-03-27T01:20:15.015Z,10.27
2019-03-27T01:22:42.398Z,10.97
2019-03-27T01:25:09.809Z,12.60
2019-03-27T01:27:37.199Z,12.30
2019-03-27T01:30:04.885Z,11.13
2019-03-27T01:32:32.273Z,11.60
2019-03-27T01:34:59.687Z,12.23
2019-03-27T01:37:27.078Z,11.50
2019-03-27T01:39:54.491Z,12.00
2019-03-27T01:42:21.885Z,11.43
2019-03-27T01:44:49.327Z,12.13
2019-03-27T01:47:16.689Z,10.80
2019-03-27T01:49:44.102Z,10.80
2019-03-27T01:52:11.485Z,15.23
2019-03-27T01:54:38.870Z,11.50
2019-03-27T01:57:06.289Z,11.20
2019-03-27T01:59:33.684Z,12.97
2019-03-27T02:02:01.096Z,13.33
2019-03-27T02:04:28.488Z,12.10
2019-03-27T02:06:55.913Z,12.43
2019-03-27T02:09:23.298Z,13.03
2019-03-27T02:11:50.714Z,14.20
2019-03-27T02:14:18.100Z,13.13
2019-03-27T02:16:45.520Z,10.90
2019-03-27T02:19:12.910Z,13.27
2019-03-27T02:21:40.321Z,13.37
2019-03-27T02:24:07.706Z,12.80
2019-03-27T02:26:35.129Z,11.83
2019-03-27T02:29:03.488Z,13.47
2019-03-27T02:31:30.909Z,13.10
2019-03-27T02:33:58.302Z,13.17
2019-03-27T02:36:25.714Z,13.00
2019-03-27T02:38:53.097Z,13.33
2019-03-27T02:41:20.516Z,12.73
2019-03-27T02:43:47.901Z,14.47
2019-03-27T02:46:24.371Z,12.70
2019-03-27T02:48:44.357Z,13.27
2019-03-27T02:51:11.761Z,12.93
2019-03-27T02:53:39.146Z,14.13
2019-03-27T02:56:06.574Z,14.90
2019-03-27T02:58:33.954Z,13.73
2019-03-27T03:01:01.367Z,13.77
2019-03-27T03:03:28.774Z,14.07
2019-03-27T03:05:56.179Z,12.40
2019-03-27T03:08:23.591Z,14.47
2019-03-27T03:10:51.005Z,13.63
2019-03-27T03:13:18.389Z,14.40
2019-03-27T03:15:45.778Z,15.43
2019-03-27T03:18:13.198Z,13.70
2019-03-27T03:20:40.587Z,12.93
2019-03-27T03:23:08.001Z,14.43
2019-03-27T03:25:35.393Z,14.40
2019-03-27T03:28:02.817Z,15.03
2019-03-27T03:30:30.383Z,14.83
2019-03-27T03:32:57.799Z,14.20
2019-03-27T03:35:25.184Z,15.40
2019-03-27T03:37:52.603Z,13.10
2019-03-27T03:40:20.066Z,14.20
2019-03-27T03:42:47.546Z,15.73
2019-03-27T03:45:15.110Z,14.60
2019-03-27T03:47:42.576Z,16.83
2019-03-27T03:50:11.501Z,16.80
2019-03-27T03:52:38.927Z,16.97
2019-03-27T03:55:06.378Z,18.33
2019-03-27T03:57:34.655Z,18.40
2019-03-27T04:00:02.525Z,18.30
2019-03-27T04:02:31.709Z,18.40
2019-03-27T04:04:59.568Z,17.60
2019-03-27T04:07:27.000Z,17.53
2019-03-27T04:09:54.370Z,19.53
2019-03-27T04:12:21.791Z,19.17
2019-03-27T04:14:49.184Z,20.40
2019-03-27T04:17:17.970Z,21.03
2019-03-27T04:19:45.566Z,19.13
2019-03-27T04:22:12.941Z,18.03
2019-03-27T04:24:40.313Z,19.13
2019-03-27T04:27:07.702Z,20.63
2019-03-27T04:29:35.120Z,18.20
2019-03-27T04:32:02.512Z,18.03
2019-03-27T04:34:29.930Z,17.93
2019-03-27T04:36:57.328Z,20.83
2019-03-27T04:39:24.737Z,20.20
2019-03-27T04:41:52.122Z,19.93
2019-03-27T04:44:19.533Z,19.40
2019-03-27T04:46:46.928Z,19.37
2019-03-27T04:49:14.339Z,19.80
2019-03-27T04:51:41.729Z,19.63
2019-03-27T04:54:09.138Z,20.33
2019-03-27T04:56:36.520Z,18.70
2019-03-27T04:59:03.996Z,18.07
2019-03-27T05:01:31.321Z,18.47
2019-03-27T05:03:59.105Z,18.27
2019-03-27T05:06:26.496Z,18.13
2019-03-27T05:08:53.978Z,19.73
2019-03-27T05:11:21.370Z,18.10
2019-03-27T05:13:48.774Z,18.20
2019-03-27T05:16:16.161Z,18.53
2019-03-27T05:18:43.597Z,19.50
2019-03-27T05:21:10.985Z,18.20
2019-03-27T05:23:38.401Z,19.00
2019-03-27T05:26:05.789Z,18.23
2019-03-27T05:28:33.205Z,19.43
2019-03-27T05:31:00.638Z,19.33
2019-03-27T05:33:28.087Z,17.47
2019-03-27T05:35:55.469Z,18.75
2019-03-27T05:38:22.880Z,19.27
2019-03-27T05:40:50.297Z,17.83
2019-03-27T05:43:17.704Z,19.17
2019-03-27T05:45:45.203Z,18.17
2019-03-27T05:48:12.747Z,20.30
2019-03-27T05:50:40.197Z,18.40
2019-03-27T05:53:07.593Z,17.50
2019-03-27T05:55:35.045Z,18.70
2019-03-27T05:58:02.466Z,20.23
2019-03-27T06:00:33.191Z,18.27
2019-03-27T06:02:58.973Z,18.70
2019-03-27T06:05:26.415Z,18.40
2019-03-27T06:07:53.873Z,19.00
2019-03-27T06:10:21.346Z,20.40
2019-03-27T06:12:48.782Z,19.60
2019-03-27T06:15:16.193Z,18.80
2019-03-27T06:17:43.580Z,18.37
2019-03-27T06:20:11.172Z,19.63
2019-03-27T06:22:38.567Z,19.30
2019-03-27T06:25:06.159Z,18.30
2019-03-27T06:27:33.625Z,19.10
2019-03-27T06:30:01.045Z,19.80
2019-03-27T06:32:28.441Z,19.60
2019-03-27T06:34:55.833Z,20.80
2019-03-27T06:37:23.222Z,20.03
2019-03-27T06:39:50.628Z,18.77
2019-03-27T06:42:18.088Z,20.50
2019-03-27T06:44:45.499Z,21.87
2019-03-27T06:47:12.894Z,20.67
2019-03-27T06:49:40.322Z,20.07
2019-03-27T06:52:07.782Z,21.13
2019-03-27T06:54:35.203Z,23.93
2019-03-27T06:57:02.628Z,147.77
2019-03-27T06:59:30.021Z,34.53
2019-03-27T07:01:57.415Z,22.37
2019-03-27T07:04:24.797Z,19.93
2019-03-27T07:06:52.226Z,22.93
2019-03-27T07:09:19.604Z,22.03
2019-03-27T07:11:47.035Z,21.17
2019-03-27T07:14:14.425Z,18.97
2019-03-27T07:16:41.837Z,18.57
2019-03-27T07:19:09.226Z,18.57
2019-03-27T07:21:36.653Z,20.20
2019-03-27T07:24:04.122Z,21.30
2019-03-27T07:26:31.542Z,20.67
2019-03-27T07:28:58.925Z,21.40
2019-03-27T07:31:26.350Z,19.60
2019-03-27T07:33:53.731Z,20.20
2019-03-27T07:36:21.144Z,21.50
2019-03-27T07:38:48.527Z,20.87
2019-03-27T07:41:15.938Z,20.63
2019-03-27T07:43:43.336Z,21.03
2019-03-27T07:46:10.750Z,19.57
2019-03-27T07:48:38.145Z,20.20
2019-03-27T07:51:05.558Z,21.33
2019-03-27T07:53:32.935Z,19.50
2019-03-27T07:56:00.415Z,21.07
2019-03-27T07:58:27.807Z,20.00
2019-03-27T08:00:55.220Z,19.53
2019-03-27T08:03:22.607Z,18.77
2019-03-27T08:05:50.029Z,28.77
2019-03-27T08:08:17.413Z,32.27
2019-03-27T08:10:45.306Z,20.73
2019-03-27T08:13:12.693Z,21.20
2019-03-27T08:15:40.967Z,19.12
2019-03-27T08:18:08.404Z,18.90
2019-03-27T08:20:35.783Z,18.50
2019-03-27T08:23:03.201Z,18.03
2019-03-27T08:25:30.595Z,17.90
2019-03-27T08:27:58.021Z,18.83
2019-03-27T08:30:25.479Z,19.93
2019-03-27T08:32:52.886Z,18.40
2019-03-27T08:35:20.273Z,18.40
2019-03-27T08:37:47.703Z,19.13
2019-03-27T08:40:15.834Z,19.65
2019-03-27T08:42:43.254Z,21.70
2019-03-27T08:45:11.109Z,19.53
2019-03-27T08:47:38.571Z,16.63
2019-03-27T08:50:06.890Z,16.43
2019-03-27T08:52:34.317Z,13.93
2019-03-27T08:55:01.707Z,12.27
2019-03-27T08:57:29.132Z,14.60
2019-03-27T08:59:56.519Z,13.23
2019-03-27T09:02:23.935Z,12.57
2019-03-27T09:04:51.319Z,13.07
2019-03-27T09:07:18.732Z,14.20
2019-03-27T09:09:46.128Z,12.43
2019-03-27T09:12:13.540Z,13.30
2019-03-27T09:14:40.929Z,13.20
2019-03-27T09:17:08.349Z,12.07
2019-03-27T09:19:36.472Z,13.47
2019-03-27T09:22:04.113Z,11.27
2019-03-27T09:24:31.497Z,11.23
2019-03-27T09:26:58.920Z,13.93
2019-03-27T09:29:26.368Z,12.77
2019-03-27T09:31:53.733Z,13.10
2019-03-27T09:34:21.119Z,12.20
2019-03-27T09:36:48.530Z,13.57
2019-03-27T09:39:15.981Z,10.93
2019-03-27T09:41:43.403Z,14.63
2019-03-27T09:44:10.787Z,13.07
2019-03-27T09:46:38.203Z,13.30
2019-03-27T09:49:05.651Z,11.90
2019-03-27T09:51:33.037Z,12.87
2019-03-27T09:54:00.519Z,19.97
2019-03-27T09:56:27.912Z,19.80
2019-03-27T09:58:55.321Z,11.53
2019-03-27T10:01:22.717Z,12.63
2019-03-27T10:03:50.136Z,11.30
2019-03-27T10:06:17.533Z,9.45
2019-03-27T10:08:44.949Z,9.50
2019-03-27T10:11:12.346Z,11.40
2019-03-27T10:13:39.752Z,9.50
2019-03-27T10:16:07.138Z,8.40
2019-03-27T10:18:34.565Z,8.90
2019-03-27T10:23:28.133Z,7.43
2019-03-27T10:25:55.517Z,7.80
2019-03-27T10:28:23.074Z,7.93
2019-03-27T10:30:50.463Z,6.43
2019-03-27T10:33:17.880Z,6.40
2019-03-27T10:35:45.262Z,5.67
2019-03-27T10:38:12.668Z,5.87
2019-03-27T10:40:40.057Z,5.60
2019-03-27T10:43:07.469Z,6.00
2019-03-27T10:45:34.868Z,6.10
2019-03-27T10:48:02.263Z,6.40
2019-03-27T10:50:29.741Z,6.37
2019-03-27T10:52:57.235Z,7.73
2019-03-27T10:55:24.621Z,7.15
2019-03-27T10:57:52.051Z,6.90
2019-03-27T11:00:19.507Z,7.03
2019-03-27T11:02:46.918Z,6.97
2019-03-27T11:05:14.376Z,6.50
2019-03-27T11:07:41.777Z,6.07
2019-03-27T11:10:09.543Z,5.43
2019-03-27T11:12:36.924Z,5.80
2019-03-27T11:15:05.864Z,6.10
2019-03-27T11:17:33.253Z,5.83
2019-03-27T11:20:00.665Z,6.17
2019-03-27T11:22:28.049Z,5.37
2019-03-27T11:24:55.460Z,7.03
2019-03-27T11:27:22.851Z,5.83
2019-03-27T11:29:50.263Z,6.30
2019-03-27T11:32:17.758Z,5.70
2019-03-27T11:34:45.161Z,5.87
2019-03-27T11:37:12.555Z,7.47
2019-03-27T11:39:39.964Z,6.23
2019-03-27T11:42:07.359Z,6.93
2019-03-27T11:44:34.774Z,5.83
2019-03-27T11:47:02.163Z,6.97
2019-03-27T11:49:29.578Z,6.23
2019-03-27T11:51:56.971Z,6.27
2019-03-27T11:54:24.371Z,5.63
2019-03-27T11:56:51.753Z,5.73
2019-03-27T11:59:19.158Z,5.90
2019-03-27T12:01:46.543Z,6.73
2019-03-27T12:04:14.009Z,6.17
2019-03-27T12:06:41.441Z,6.03
2019-03-27T12:09:08.913Z,6.07
2019-03-27T12:11:36.296Z,7.00
2019-03-27T12:14:03.878Z,5.10
2019-03-27T12:16:31.287Z,5.07
2019-03-27T12:18:58.677Z,5.67
2019-03-27T12:21:26.073Z,5.30
2019-03-27T12:23:53.450Z,5.60
2019-03-27T12:26:20.882Z,5.43
2019-03-27T12:28:48.352Z,5.03
2019-03-27T12:31:16.448Z,5.90
2019-03-27T12:33:43.830Z,5.23
2019-03-27T12:36:11.242Z,5.33
2019-03-27T12:38:38.629Z,16.33
2019-03-27T12:41:06.043Z,4.92
2019-03-27T12:43:33.429Z,4.60
2019-03-27T12:46:00.834Z,4.57
2019-03-27T12:48:28.211Z,4.20
2019-03-27T12:50:55.623Z,3.73
2019-03-27T12:53:23.068Z,4.17
2019-03-27T12:55:50.474Z,3.93
2019-03-27T12:58:17.918Z,4.10
2019-03-27T13:00:45.399Z,4.23
2019-03-27T13:03:12.782Z,4.83
2019-03-27T13:05:40.248Z,4.13
2019-03-27T13:08:07.711Z,4.07
2019-03-27T13:10:35.129Z,3.83
2019-03-27T13:13:02.506Z,4.40
2019-03-27T13:15:29.913Z,3.13
2019-03-27T13:17:57.293Z,2.17
2019-03-27T13:20:24.764Z,2.37
2019-03-27T13:22:52.145Z,2.40
2019-03-27T13:25:20.017Z,2.70
2019-03-27T13:27:47.680Z,2.80
2019-03-27T13:30:15.270Z,2.50
2019-03-27T13:32:42.656Z,3.20
2019-03-27T13:35:10.232Z,2.43
2019-03-27T13:37:37.631Z,2.90
2019-03-27T13:40:06.524Z,2.57
2019-03-27T13:42:33.998Z,2.83
2019-03-27T13:45:01.375Z,2.97
2019-03-27T13:47:28.858Z,3.83
2019-03-27T13:49:56.179Z,3.03
2019-03-27T13:52:23.677Z,3.30
2019-03-27T13:54:51.065Z,3.13
2019-03-27T13:57:18.470Z,3.70
2019-03-27T13:59:45.851Z,3.67
2019-03-27T14:02:13.335Z,3.80
2019-03-27T14:04:40.788Z,3.63
2019-03-27T14:07:08.121Z,3.07
2019-03-27T14:09:35.500Z,3.70
2019-03-27T14:12:02.921Z,4.17
2019-03-27T14:14:30.302Z,4.60
2019-03-27T14:16:57.710Z,3.43
2019-03-27T14:19:25.094Z,3.70
2019-03-27T14:21:54.818Z,4.60
2019-03-27T14:24:21.519Z,4.17
2019-03-27T14:26:48.931Z,3.97
2019-03-27T14:29:16.312Z,4.00
2019-03-27T14:31:43.785Z,3.20
2019-03-27T14:34:11.165Z,3.60
2019-03-27T14:36:38.586Z,3.47
2019-03-27T14:39:06.536Z,3.50
2019-03-27T14:41:33.942Z,2.70
2019-03-27T14:44:01.319Z,2.90
2019-03-27T14:46:28.726Z,3.60
2019-03-27T14:48:56.110Z,3.47
2019-03-27T14:51:23.526Z,2.80
2019-03-27T14:53:50.909Z,3.20
2019-03-27T14:56:18.318Z,2.77
2019-03-27T14:58:45.698Z,2.10
2019-03-27T15:01:13.170Z,3.90
2019-03-27T15:03:40.554Z,2.20
2019-03-27T15:06:07.937Z,2.37
2019-03-27T15:08:35.344Z,3.03
2019-03-27T15:11:02.722Z,2.80
2019-03-27T15:13:30.135Z,25.73
2019-03-27T15:15:57.507Z,3.73
2019-03-27T15:18:24.928Z,2.50
2019-03-27T15:20:52.304Z,2.70
2019-03-27T15:23:19.713Z,3.23
2019-03-27T15:25:47.093Z,2.80
2019-03-27T15:28:14.506Z,3.47
2019-03-27T15:30:41.882Z,3.30
2019-03-27T15:33:09.295Z,3.33
2019-03-27T15:35:36.667Z,2.70
2019-03-27T15:38:04.074Z,3.27
2019-03-27T15:40:37.914Z,2.37
2019-03-27T15:43:05.324Z,3.00
2019-03-27T15:45:32.704Z,2.27
2019-03-27T15:48:00.116Z,2.60
2019-03-27T15:50:27.495Z,3.00
2019-03-27T15:52:54.896Z,2.00
2019-03-27T15:55:22.281Z,1.93
2019-03-27T15:57:49.689Z,2.63
2019-03-27T16:00:17.705Z,2.93
2019-03-27T16:02:45.112Z,2.60
2019-03-27T16:05:12.492Z,2.27
2019-03-27T16:07:39.907Z,1.83
2019-03-27T16:10:07.358Z,1.90
2019-03-27T16:12:36.266Z,2.50
2019-03-27T16:15:05.456Z,2.40
2019-03-27T16:17:32.875Z,2.40
2019-03-27T16:20:00.357Z,2.13
2019-03-27T16:22:27.784Z,2.23
2019-03-27T16:24:55.163Z,2.20
2019-03-27T16:27:22.574Z,2.27
2019-03-27T16:29:49.964Z,2.03
2019-03-27T16:32:17.356Z,2.10
2019-03-27T16:34:44.739Z,2.10
2019-03-27T16:37:12.214Z,2.37
2019-03-27T16:39:39.593Z,2.67
2019-03-27T16:42:07.023Z,2.70
2019-03-27T16:44:34.397Z,2.80
2019-03-27T16:47:01.855Z,3.03
2019-03-27T16:49:29.253Z,3.13
2019-03-27T16:51:56.716Z,4.00
2019-03-27T16:54:24.054Z,3.33
2019-03-27T16:56:51.428Z,2.83
2019-03-27T16:59:18.835Z,2.90
2019-03-27T17:01:46.213Z,3.40
2019-03-27T17:04:13.621Z,3.17
2019-03-27T17:06:41.000Z,3.00
2019-03-27T17:09:08.482Z,2.70
2019-03-27T17:11:35.856Z,3.57
2019-03-27T17:14:03.270Z,3.27
2019-03-27T17:16:30.649Z,3.33
2019-03-27T17:18:58.061Z,2.30
2019-03-27T17:21:25.429Z,2.70
2019-03-27T17:23:52.872Z,2.77
2019-03-27T17:26:20.248Z,2.90
2019-03-27T17:28:47.705Z,3.43
2019-03-27T17:31:15.095Z,2.40
2019-03-27T17:33:42.522Z,2.90
2019-03-27T17:36:09.942Z,2.57
2019-03-27T17:38:37.349Z,2.93
2019-03-27T17:41:04.863Z,2.23
2019-03-27T17:43:32.274Z,3.20
2019-03-27T17:45:59.726Z,3.07
2019-03-27T17:48:27.144Z,2.67
2019-03-27T17:50:54.521Z,3.47
2019-03-27T17:53:31.511Z,2.50
2019-03-27T17:55:50.960Z,2.83
2019-03-27T17:58:18.367Z,3.17
2019-03-27T18:00:47.504Z,3.43
2019-03-27T18:03:14.909Z,3.67
2019-03-27T18:05:42.370Z,2.90
2019-03-27T18:08:09.836Z,2.93
2019-03-27T18:10:37.224Z,3.53
2019-03-27T18:13:04.641Z,3.67
2019-03-27T18:15:32.020Z,3.67
2019-03-27T18:17:59.440Z,32.40
2019-03-27T18:20:26.817Z,5.53
2019-03-27T18:22:54.234Z,3.63
2019-03-27T18:25:21.621Z,3.73
2019-03-27T18:27:49.005Z,3.87
2019-03-27T18:30:16.406Z,4.33
2019-03-27T18:32:43.786Z,4.23
2019-03-27T18:35:11.265Z,3.60
2019-03-27T18:37:38.650Z,3.23
2019-03-27T18:40:06.424Z,4.47
2019-03-27T18:42:33.877Z,4.30
2019-03-27T18:45:01.298Z,4.10
2019-03-27T18:47:28.669Z,4.37
2019-03-27T18:49:56.082Z,5.03
2019-03-27T18:52:23.461Z,5.47
2019-03-27T18:54:50.869Z,4.97
2019-03-27T18:57:18.262Z,4.53
2019-03-27T18:59:45.660Z,5.90
2019-03-27T19:02:13.048Z,5.50
2019-03-27T19:04:40.452Z,6.10
2019-03-27T19:07:07.909Z,5.50
2019-03-27T19:09:35.317Z,5.60
2019-03-27T19:12:02.696Z,4.97
2019-03-27T19:14:30.117Z,5.63
2019-03-27T19:16:57.499Z,5.00
2019-03-27T19:19:24.909Z,5.60
2019-03-27T19:21:52.300Z,5.40
2019-03-27T19:24:19.773Z,4.83
2019-03-27T19:26:47.264Z,5.93
2019-03-27T19:29:14.634Z,5.57
2019-03-27T19:31:42.018Z,5.97
2019-03-27T19:34:09.438Z,5.47
2019-03-27T19:36:36.822Z,6.60
2019-03-27T19:39:05.823Z,6.00
2019-03-27T19:41:33.206Z,6.70
2019-03-27T19:44:00.605Z,5.10
2019-03-27T19:46:27.986Z,7.10
2019-03-27T19:48:55.395Z,6.87
2019-03-27T19:51:22.784Z,6.93
2019-03-27T19:53:50.193Z,6.30
2019-03-27T19:56:17.590Z,7.00
2019-03-27T19:58:45.007Z,7.63
2019-03-27T20:01:12.387Z,8.73
2019-03-27T20:03:39.773Z,8.30
2019-03-27T20:06:07.196Z,9.00
2019-03-27T20:08:34.670Z,9.77
2019-03-27T20:11:02.094Z,15.77
2019-03-27T20:13:29.549Z,10.70
2019-03-27T20:15:56.970Z,10.80
2019-03-27T20:18:24.384Z,11.00
2019-03-27T20:20:51.867Z,9.40
2019-03-27T20:23:19.258Z,8.13
2019-03-27T20:25:46.690Z,21.27
2019-03-27T20:28:14.085Z,17.20
2019-03-27T20:30:41.501Z,17.00
2019-03-27T20:33:08.931Z,11.60
2019-03-27T20:35:36.340Z,8.03
2019-03-27T20:38:03.897Z,7.67
2019-03-27T20:40:31.330Z,7.30
2019-03-27T20:42:58.791Z,9.40
2019-03-27T20:45:26.275Z,9.50
2019-03-27T20:47:53.665Z,10.30
2019-03-27T20:50:21.222Z,9.83
2019-03-27T20:52:48.560Z,8.87
2019-03-27T20:55:29.286Z,10.60
2019-03-27T20:57:45.014Z,11.33
2019-03-27T21:00:12.602Z,10.90
2019-03-27T21:02:40.074Z,10.20
2019-03-27T21:05:07.644Z,9.27
2019-03-27T21:07:35.040Z,10.03
2019-03-27T21:10:02.540Z,8.83
2019-03-27T21:12:29.924Z,9.30
2019-03-27T21:14:57.351Z,9.30
2019-03-27T21:17:24.734Z,9.57
2019-03-27T21:19:52.148Z,9.10
2019-03-27T21:22:19.541Z,8.07
2019-03-27T21:24:46.949Z,8.80
2019-03-27T21:27:16.885Z,10.40
2019-03-27T21:29:47.277Z,9.80
2019-03-27T21:32:14.676Z,8.83
2019-03-27T21:34:42.373Z,9.80
2019-03-27T21:37:09.764Z,9.33
2019-03-27T21:39:37.150Z,10.97
2019-03-27T21:42:04.563Z,9.90
2019-03-27T21:44:31.951Z,8.87
2019-03-27T21:46:59.357Z,9.07
2019-03-27T21:49:26.736Z,9.23
2019-03-27T21:51:54.154Z,9.07
2019-03-27T21:54:21.605Z,9.93
2019-03-27T21:56:48.962Z,9.80
2019-03-27T21:59:16.351Z,9.87
2019-03-27T22:01:43.761Z,9.83
2019-03-27T22:04:11.140Z,9.60
2019-03-27T22:06:38.555Z,8.90
2019-03-27T22:09:06.210Z,10.07
2019-03-27T22:11:33.622Z,8.60
2019-03-27T22:14:01.017Z,10.53
2019-03-27T22:16:28.425Z,9.73
2019-03-27T22:18:55.810Z,9.37
2019-03-27T22:21:23.226Z,10.30
2019-03-27T22:23:50.613Z,9.23
2019-03-27T22:26:18.097Z,10.60
2019-03-27T22:28:45.480Z,8.90
2019-03-27T22:31:12.898Z,8.70
2019-03-27T22:33:40.278Z,7.90
2019-03-27T22:36:07.712Z,8.80
2019-03-27T22:38:35.089Z,8.23
2019-03-27T22:41:02.506Z,8.73
2019-03-27T22:43:29.903Z,8.20
2019-03-27T22:45:57.327Z,7.90
2019-03-27T22:48:24.713Z,8.10
2019-03-27T22:50:52.106Z,8.83
2019-03-27T22:53:19.515Z,10.10
2019-03-27T22:55:49.991Z,9.97
2019-03-27T22:58:16.125Z,8.90
2019-03-27T23:00:45.283Z,7.90
2019-03-27T23:03:18.425Z,8.40
2019-03-27T23:05:42.340Z,10.40
2019-03-27T23:08:09.750Z,8.80
2019-03-27T23:10:37.132Z,9.63
2019-03-27T23:13:04.540Z,9.53
2019-03-27T23:15:32.020Z,8.80
2019-03-27T23:17:59.357Z,10.20
2019-03-27T23:20:26.755Z,10.70
2019-03-27T23:22:54.182Z,9.43
2019-03-27T23:25:21.565Z,9.47
2019-03-27T23:27:48.981Z,9.00
2019-03-27T23:30:16.530Z,8.90
2019-03-27T23:32:43.947Z,7.70
2019-03-27T23:35:11.398Z,8.30
2019-03-27T23:37:38.884Z,8.40
2019-03-27T23:40:06.634Z,8.73
2019-03-27T23:42:34.312Z,8.87
2019-03-27T23:45:01.665Z,8.77
2019-03-27T23:47:29.153Z,9.73
2019-03-27T23:49:56.468Z,9.33
2019-03-27T23:52:23.890Z,10.60
2019-03-27T23:54:51.274Z,9.37
2019-03-27T23:57:18.687Z,8.53
2019-03-27T23:59:46.071Z,9.70
